Time;durP1;ratioP1;P1;durP2;ratioP2;P2;SDS_P1;SDS_P2;PMS_P1;PMS_P2;Temp;Humidity;BMP_temperature;BMP_pressure;BME280_temperature;BME280_humidity;BME280_pressure;Samples;Min_cycle;Max_cycle;Signal;HPM_P1;HPM_P2
2022/03/15 00:00:07;;;;;;;9.07;5.10;;;6.80;77.50;;;;;;5031430;28;20456;-49
2022/03/15 00:02:33;;;;;;;7.00;4.90;;;6.80;77.70;;;;;;5037547;28;20967;-49
2022/03/15 00:05:01;;;;;;;8.77;4.83;;;6.80;77.60;;;;;;5031210;28;20500;-49
2022/03/15 00:07:28;;;;;;;5.40;4.90;;;6.80;77.90;;;;;;5034044;28;20459;-49
2022/03/15 00:09:54;;;;;;;5.07;4.50;;;6.80;77.80;;;;;;5033901;28;20550;-49
2022/03/15 00:12:21;;;;;;;9.17;4.83;;;6.80;77.80;;;;;;5033112;28;20650;-48
2022/03/15 00:14:48;;;;;;;5.47;4.30;;;6.90;77.80;;;;;;5039381;28;20464;-48
2022/03/15 00:17:15;;;;;;;11.83;4.97;;;6.90;77.60;;;;;;5034409;28;20550;-49
2022/03/15 00:19:41;;;;;;;10.10;5.13;;;7.00;77.50;;;;;;5032286;28;21016;-49
2022/03/15 00:22:09;;;;;;;5.40;4.90;;;7.00;77.40;;;;;;5035626;28;20456;-48
2022/03/15 00:24:37;;;;;;;8.60;5.43;;;7.00;77.30;;;;;;5032435;28;20554;-49
2022/03/15 00:27:04;;;;;;;6.30;4.37;;;6.90;77.30;;;;;;5039013;28;20523;-49
2022/03/15 00:29:31;;;;;;;8.10;4.63;;;6.90;77.40;;;;;;5032335;28;20492;-48
2022/03/15 00:31:58;;;;;;;4.57;4.07;;;6.90;77.40;;;;;;5035552;28;20455;-49
2022/03/15 00:34:25;;;;;;;9.03;4.70;;;6.90;77.50;;;;;;5035778;28;20459;-49
2022/03/15 00:36:51;;;;;;;7.00;4.60;;;6.90;77.60;;;;;;5034948;28;20523;-49
2022/03/15 00:39:18;;;;;;;9.17;5.17;;;6.80;77.60;;;;;;5033643;28;20452;-49
2022/03/15 00:41:45;;;;;;;5.63;3.73;;;6.80;77.70;;;;;;5029747;28;20524;-48
2022/03/15 00:44:12;;;;;;;6.73;5.13;;;6.80;77.80;;;;;;5040900;28;21048;-48
2022/03/15 00:46:41;;;;;;;4.43;4.03;;;6.80;78.00;;;;;;5036180;28;20535;-48
2022/03/15 00:49:08;;;;;;;6.60;4.40;;;6.80;77.90;;;;;;5038057;28;20468;-49
2022/03/15 00:51:35;;;;;;;8.17;4.77;;;6.70;78.00;;;;;;5019506;28;20879;-49
2022/03/15 00:54:02;;;;;;;10.67;5.40;;;6.70;78.10;;;;;;5031435;28;20555;-49
2022/03/15 00:56:29;;;;;;;6.57;5.67;;;6.70;78.20;;;;;;5033838;28;20559;-48
2022/03/15 00:58:55;;;;;;;8.10;5.37;;;6.70;78.20;;;;;;5030939;28;20576;-49
2022/03/15 01:01:22;;;;;;;8.60;4.97;;;6.70;78.20;;;;;;5036417;28;20948;-49
2022/03/15 01:03:49;;;;;;;6.23;4.70;;;6.70;78.40;;;;;;5034495;28;21227;-49
2022/03/15 01:06:16;;;;;;;9.27;5.17;;;6.70;78.40;;;;;;5037319;28;20470;-48
2022/03/15 01:08:43;;;;;;;5.97;4.57;;;6.70;78.30;;;;;;5034784;28;20463;-48
2022/03/15 01:11:10;;;;;;;6.83;5.27;;;6.70;78.40;;;;;;5034804;28;20457;-49
2022/03/15 01:13:36;;;;;;;5.53;4.63;;;6.70;78.50;;;;;;5036581;28;20474;-49
2022/03/15 01:16:03;;;;;;;6.37;4.73;;;6.70;78.50;;;;;;5036616;28;20484;-48
2022/03/15 01:18:31;;;;;;;5.83;4.07;;;6.70;78.50;;;;;;5034476;28;20494;-48
2022/03/15 01:20:57;;;;;;;7.07;4.30;;;6.70;78.50;;;;;;5029827;28;20456;-49
2022/03/15 01:23:24;;;;;;;4.20;3.47;;;6.70;78.50;;;;;;5019154;28;20467;-49
2022/03/15 01:25:51;;;;;;;6.80;4.03;;;6.70;78.50;;;;;;5032061;28;20456;-49
2022/03/15 01:28:18;;;;;;;6.57;4.00;;;6.80;78.60;;;;;;5034787;28;20547;-48
2022/03/15 01:30:44;;;;;;;7.23;5.43;;;6.80;78.50;;;;;;5037148;28;21270;-49
2022/03/15 01:33:11;;;;;;;6.37;4.10;;;6.80;78.50;;;;;;5033414;28;20463;-49
2022/03/15 01:35:38;;;;;;;6.87;5.10;;;6.80;78.40;;;;;;5033285;28;20920;-49
2022/03/15 01:38:05;;;;;;;6.20;4.33;;;6.70;78.60;;;;;;5031272;28;20566;-49
2022/03/15 01:40:32;;;;;;;6.50;4.80;;;6.70;78.60;;;;;;5032339;28;20509;-49
2022/03/15 01:42:58;;;;;;;8.60;4.67;;;6.70;78.60;;;;;;5031892;28;20530;-49
2022/03/15 01:45:37;;;;;;;7.77;6.23;;;6.70;78.70;;;;;;5033338;28;20483;-49
2022/03/15 01:48:06;;;;;;;9.93;4.60;;;6.70;78.80;;;;;;5035786;28;20836;-49
2022/03/15 01:50:34;;;;;;;7.33;4.00;;;6.70;78.70;;;;;;5032156;28;20462;-49
2022/03/15 01:53:01;;;;;;;8.03;4.93;;;6.70;78.80;;;;;;5031550;28;20972;-49
2022/03/15 01:55:28;;;;;;;7.03;4.60;;;6.70;78.70;;;;;;5033732;28;20448;-49
2022/03/15 01:57:57;;;;;;;5.87;4.70;;;6.70;78.70;;;;;;5036972;28;20467;-49
2022/03/15 02:00:23;;;;;;;5.50;4.60;;;6.70;78.80;;;;;;5018759;28;20495;-49
2022/03/15 02:02:50;;;;;;;7.40;4.20;;;6.70;79.00;;;;;;5032294;28;20455;-48
2022/03/15 02:05:17;;;;;;;5.40;4.33;;;6.70;79.10;;;;;;5033258;28;21229;-49
2022/03/15 02:07:44;;;;;;;6.77;4.10;;;6.70;79.00;;;;;;5032500;28;20466;-48
2022/03/15 02:10:11;;;;;;;5.67;4.40;;;6.80;78.90;;;;;;5029916;28;20449;-48
2022/03/15 02:12:38;;;;;;;6.80;4.60;;;6.80;78.80;;;;;;5047486;28;20490;-48
2022/03/15 02:15:07;;;;;;;6.40;4.50;;;6.70;78.90;;;;;;5030164;28;20474;-48
2022/03/15 02:17:36;;;;;;;4.33;3.93;;;6.70;78.90;;;;;;5035764;28;20490;-48
2022/03/15 02:20:08;;;;;;;6.90;5.07;;;6.70;79.00;;;;;;5033013;28;20539;-48
2022/03/15 02:22:35;;;;;;;4.57;3.93;;;6.70;79.00;;;;;;5033818;28;20458;-48
2022/03/15 02:25:03;;;;;;;7.43;5.43;;;6.70;78.80;;;;;;5031228;28;20496;-48
2022/03/15 02:27:30;;;;;;;12.00;4.87;;;6.70;79.10;;;;;;5030277;28;21036;-48
2022/03/15 02:29:57;;;;;;;5.23;4.10;;;6.70;79.20;;;;;;5036241;28;20503;-48
2022/03/15 02:32:23;;;;;;;4.63;4.17;;;6.70;79.30;;;;;;5034792;28;21064;-48
2022/03/15 02:34:50;;;;;;;7.03;4.83;;;6.70;79.40;;;;;;5033399;28;20464;-48
2022/03/15 02:37:17;;;;;;;6.90;4.57;;;6.60;79.30;;;;;;5023194;28;20507;-48
2022/03/15 02:39:44;;;;;;;5.40;4.33;;;6.60;79.40;;;;;;5033037;28;20459;-48
2022/03/15 02:42:10;;;;;;;6.77;4.27;;;6.60;79.40;;;;;;5034801;28;20556;-48
2022/03/15 02:44:37;;;;;;;4.87;4.47;;;6.60;79.50;;;;;;5035603;28;20518;-48
2022/03/15 02:47:04;;;;;;;8.90;4.53;;;6.60;79.60;;;;;;5031673;28;20478;-48
2022/03/15 02:49:30;;;;;;;5.30;4.10;;;6.60;79.80;;;;;;5030790;28;20464;-48
2022/03/15 02:51:57;;;;;;;5.30;4.40;;;6.60;79.80;;;;;;5031392;28;20477;-49
2022/03/15 02:54:24;;;;;;;9.60;5.00;;;6.60;79.80;;;;;;5020295;28;20468;-48
2022/03/15 02:56:51;;;;;;;6.00;5.17;;;6.60;79.90;;;;;;5030297;28;20475;-49
2022/03/15 02:59:19;;;;;;;9.67;4.70;;;6.60;79.90;;;;;;5031371;28;20456;-48
2022/03/15 03:01:47;;;;;;;7.80;4.30;;;6.60;79.80;;;;;;5033294;28;20463;-48
2022/03/15 03:04:19;;;;;;;6.00;4.30;;;6.60;79.80;;;;;;5030607;28;20507;-48
2022/03/15 03:06:46;;;;;;;5.20;4.70;;;6.60;79.80;;;;;;5034950;28;20475;-48
2022/03/15 03:09:15;;;;;;;5.90;4.73;;;6.60;79.70;;;;;;5031729;28;20531;-48
2022/03/15 03:11:41;;;;;;;6.80;4.37;;;6.60;79.80;;;;;;5021854;28;20829;-45
2022/03/15 03:14:12;;;;;;;4.73;4.23;;;6.60;79.90;;;;;;5018538;28;20729;-45
2022/03/15 03:16:40;;;;;;;7.07;4.27;;;6.60;79.90;;;;;;5014669;28;20949;-45
2022/03/15 03:19:08;;;;;;;7.47;4.93;;;6.60;79.80;;;;;;5003449;28;20464;-44
2022/03/15 03:21:36;;;;;;;6.73;4.70;;;6.60;79.80;;;;;;5021961;28;20474;-44
2022/03/15 03:24:07;;;;;;;9.53;5.20;;;6.60;79.80;;;;;;5020072;28;20464;-45
2022/03/15 03:26:37;;;;;;;4.47;4.07;;;6.60;79.90;;;;;;5019578;28;20471;-45
2022/03/15 03:29:09;;;;;;;6.83;4.87;;;6.60;79.90;;;;;;5018585;28;20455;-45
2022/03/15 03:31:41;;;;;;;5.20;4.70;;;6.60;79.90;;;;;;5019338;28;20797;-45
2022/03/15 03:34:09;;;;;;;7.43;4.53;;;6.60;79.90;;;;;;5021634;28;20456;-45
2022/03/15 03:36:36;;;;;;;5.57;4.50;;;6.60;80.00;;;;;;5005452;28;20459;-45
2022/03/15 03:39:23;;;;;;;6.60;5.43;;;6.60;80.10;;;;;;5024184;28;20459;-45
2022/03/15 03:41:51;;;;;;;5.33;4.00;;;6.60;79.90;;;;;;5020172;28;20489;-45
2022/03/15 03:44:18;;;;;;;5.53;4.50;;;6.60;79.90;;;;;;5016883;28;20495;-44
2022/03/15 03:46:45;;;;;;;6.07;4.10;;;6.60;80.00;;;;;;5019388;28;20487;-46
2022/03/15 03:49:13;;;;;;;7.70;4.57;;;6.50;80.10;;;;;;5019093;28;20466;-46
2022/03/15 03:51:40;;;;;;;7.53;4.80;;;6.60;80.20;;;;;;5017219;28;20879;-47
2022/03/15 03:54:07;;;;;;;7.43;4.80;;;6.60;80.20;;;;;;5020868;28;20821;-47
2022/03/15 03:56:34;;;;;;;6.70;5.37;;;6.60;80.10;;;;;;5021290;28;20470;-47
2022/03/15 03:59:00;;;;;;;7.53;5.03;;;6.50;80.20;;;;;;5023052;28;21249;-47
2022/03/15 04:01:27;;;;;;;6.33;4.30;;;6.60;80.20;;;;;;5021042;28;20470;-46
2022/03/15 04:03:54;;;;;;;6.53;4.27;;;6.60;80.30;;;;;;5020807;28;20470;-46
2022/03/15 04:06:21;;;;;;;6.60;4.40;;;6.60;80.30;;;;;;5036612;28;21054;-47
2022/03/15 04:08:48;;;;;;;6.90;4.20;;;6.50;80.20;;;;;;5019378;28;20965;-46
2022/03/15 04:11:16;;;;;;;5.00;4.37;;;6.50;80.30;;;;;;5019691;28;20459;-46
2022/03/15 04:13:43;;;;;;;7.80;6.40;;;6.50;80.40;;;;;;5003607;28;20472;-47
2022/03/15 04:16:10;;;;;;;5.07;4.20;;;6.50;80.50;;;;;;5020194;28;20451;-47
2022/03/15 04:18:37;;;;;;;7.47;4.87;;;6.50;80.50;;;;;;5002722;28;20809;-46
2022/03/15 04:21:04;;;;;;;7.00;4.87;;;6.50;80.50;;;;;;5021010;28;20456;-46
2022/03/15 04:23:31;;;;;;;7.23;4.80;;;6.50;80.50;;;;;;5007563;28;21014;-46
2022/03/15 04:25:58;;;;;;;7.50;5.10;;;6.50;80.60;;;;;;5022628;28;20487;-46
2022/03/15 04:28:25;;;;;;;4.50;4.00;;;6.50;80.70;;;;;;5001850;28;20460;-46
2022/03/15 04:30:52;;;;;;;6.70;4.13;;;6.50;80.70;;;;;;5015546;28;20472;-46
2022/03/15 04:33:18;;;;;;;5.90;5.07;;;6.50;80.70;;;;;;5018981;28;20459;-46
2022/03/15 04:35:45;;;;;;;8.20;5.30;;;6.50;80.70;;;;;;5015282;28;20467;-46
2022/03/15 04:38:12;;;;;;;9.33;5.97;;;6.50;80.80;;;;;;5017356;28;20470;-46
2022/03/15 04:40:39;;;;;;;6.80;5.30;;;6.50;80.80;;;;;;5018367;28;20459;-46
2022/03/15 04:43:06;;;;;;;6.87;4.87;;;6.60;80.80;;;;;;5021632;28;20463;-46
2022/03/15 04:45:33;;;;;;;6.97;4.53;;;6.60;80.70;;;;;;5020855;28;20504;-47
2022/03/15 04:48:00;;;;;;;10.03;5.50;;;6.60;80.80;;;;;;5018225;28;20471;-46
2022/03/15 04:50:26;;;;;;;8.13;5.10;;;6.50;80.80;;;;;;5033004;28;20459;-46
2022/03/15 04:52:53;;;;;;;10.57;4.80;;;6.50;80.90;;;;;;5016012;28;20838;-46
2022/03/15 04:55:20;;;;;;;7.47;4.67;;;6.60;80.90;;;;;;5017655;28;20464;-46
2022/03/15 04:57:46;;;;;;;4.20;3.80;;;6.60;80.90;;;;;;5036641;28;20467;-46
2022/03/15 05:00:14;;;;;;;6.50;4.90;;;6.60;80.90;;;;;;5018517;28;20813;-46
2022/03/15 05:02:41;;;;;;;8.00;5.00;;;6.60;81.00;;;;;;5014510;28;20459;-46
2022/03/15 05:05:08;;;;;;;8.47;5.37;;;6.60;80.90;;;;;;5018319;28;20594;-46
2022/03/15 05:07:35;;;;;;;7.87;4.50;;;6.60;80.90;;;;;;5016331;28;20497;-46
2022/03/15 05:12:48;;;;;;;6.40;4.83;;;6.60;80.80;;;;;;5020029;28;20984;-46
2022/03/15 05:15:14;;;;;;;8.90;5.00;;;6.60;80.90;;;;;;5004974;28;20978;-46
2022/03/15 05:17:41;;;;;;;6.03;4.70;;;6.60;80.80;;;;;;5017047;28;20480;-46
2022/03/15 05:20:10;;;;;;;12.17;5.90;;;6.70;80.70;;;;;;5019400;28;20475;-46
2022/03/15 05:22:36;;;;;;;10.00;5.20;;;6.70;80.60;;;;;;5016916;28;20507;-47
2022/03/15 05:25:04;;;;;;;8.33;4.67;;;6.70;80.50;;;;;;5009649;28;20578;-47
2022/03/15 05:27:34;;;;;;;8.10;4.87;;;6.60;80.60;;;;;;5017512;28;20823;-46
2022/03/15 05:30:02;;;;;;;13.63;5.50;;;6.60;80.60;;;;;;5006219;28;20461;-46
2022/03/15 05:32:29;;;;;;;6.70;4.87;;;6.60;80.80;;;;;;5015589;28;20463;-46
2022/03/15 05:34:56;;;;;;;7.40;4.93;;;6.60;80.80;;;;;;5003782;28;20471;-46
2022/03/15 05:37:23;;;;;;;7.80;4.60;;;6.60;80.90;;;;;;5018331;28;20479;-46
2022/03/15 05:39:50;;;;;;;7.33;5.60;;;6.60;80.90;;;;;;5017840;28;20509;-46
2022/03/15 05:42:18;;;;;;;5.27;4.60;;;6.60;80.90;;;;;;5020626;28;20972;-46
2022/03/15 05:44:45;;;;;;;8.13;5.90;;;6.60;80.90;;;;;;5023309;28;20456;-46
2022/03/15 05:47:12;;;;;;;8.57;5.37;;;6.50;81.00;;;;;;5017419;28;20874;-46
2022/03/15 05:49:39;;;;;;;7.60;5.77;;;6.50;81.00;;;;;;4996176;28;20455;-46
2022/03/15 05:52:07;;;;;;;9.30;5.80;;;6.60;81.00;;;;;;5017121;28;20456;-46
2022/03/15 05:54:35;;;;;;;6.20;4.93;;;6.60;81.00;;;;;;4997814;28;20464;-46
2022/03/15 05:57:02;;;;;;;7.33;6.10;;;6.60;81.00;;;;;;5016644;28;20460;-46
2022/03/15 05:59:29;;;;;;;9.50;5.53;;;6.60;81.10;;;;;;5006101;28;20827;-46
2022/03/15 06:01:57;;;;;;;8.23;6.30;;;6.60;81.00;;;;;;5023004;28;21006;-46
2022/03/15 06:04:25;;;;;;;7.87;5.70;;;6.60;81.10;;;;;;5017013;28;20833;-46
2022/03/15 06:06:55;;;;;;;6.17;5.57;;;6.60;81.20;;;;;;5018323;28;20593;-46
2022/03/15 06:09:23;;;;;;;11.90;6.30;;;6.60;81.10;;;;;;5016193;28;20462;-46
2022/03/15 06:11:51;;;;;;;9.03;5.00;;;6.60;81.00;;;;;;5018729;28;20470;-47
2022/03/15 06:14:20;;;;;;;7.77;5.87;;;6.60;81.10;;;;;;5008757;28;20831;-46
2022/03/15 06:16:47;;;;;;;13.50;6.03;;;6.60;81.20;;;;;;5019290;28;20455;-46
2022/03/15 06:19:15;;;;;;;7.50;5.80;;;6.60;81.20;;;;;;5014142;28;20847;-46
2022/03/15 06:21:42;;;;;;;11.83;5.70;;;6.60;81.40;;;;;;5020657;28;20461;-46
2022/03/15 06:24:09;;;;;;;27.53;18.57;;;6.60;81.40;;;;;;5014667;28;20464;-46
2022/03/15 06:26:37;;;;;;;40.93;27.03;;;6.60;81.50;;;;;;5016835;28;20502;-47
2022/03/15 06:29:07;;;;;;;27.40;19.70;;;6.60;81.30;;;;;;5017626;28;20467;-46
2022/03/15 06:31:34;;;;;;;18.80;13.63;;;6.60;81.30;;;;;;5013567;28;20465;-46
2022/03/15 06:34:04;;;;;;;8.77;6.70;;;6.60;81.30;;;;;;5014470;28;20487;-46
2022/03/15 06:36:34;;;;;;;7.20;5.97;;;6.60;81.40;;;;;;5019247;28;20482;-46
2022/03/15 06:39:01;;;;;;;9.60;7.13;;;6.70;81.30;;;;;;4999712;28;20898;-47
2022/03/15 06:41:28;;;;;;;9.37;7.57;;;6.70;81.20;;;;;;5003811;28;20897;-46
2022/03/15 06:43:55;;;;;;;7.13;5.63;;;6.80;80.70;;;;;;5016005;28;20460;-46
2022/03/15 06:46:23;;;;;;;7.57;5.30;;;6.80;80.80;;;;;;5007510;28;20623;-47
2022/03/15 06:48:50;;;;;;;10.00;5.70;;;6.80;81.00;;;;;;5016977;28;20460;-46
2022/03/15 06:51:17;;;;;;;12.57;5.83;;;6.80;81.00;;;;;;5018141;28;20484;-46
2022/03/15 06:53:44;;;;;;;9.00;6.27;;;6.80;81.00;;;;;;5013236;28;20824;-47
2022/03/15 06:56:10;;;;;;;8.23;6.27;;;6.80;81.10;;;;;;5017405;28;20460;-46
2022/03/15 06:58:37;;;;;;;9.60;5.53;;;6.90;81.10;;;;;;5015657;28;20471;-46
2022/03/15 07:01:04;;;;;;;7.80;6.10;;;6.90;81.10;;;;;;5017841;28;20495;-46
2022/03/15 07:03:31;;;;;;;8.90;5.00;;;6.90;81.20;;;;;;5002362;28;20455;-47
2022/03/15 07:05:58;;;;;;;7.87;6.70;;;6.90;81.10;;;;;;4999729;28;20527;-47
2022/03/15 07:08:25;;;;;;;8.87;6.53;;;6.90;81.30;;;;;;5016871;28;20551;-47
2022/03/15 07:10:53;;;;;;;6.90;5.20;;;7.00;81.30;;;;;;5008614;28;20456;-47
2022/03/15 07:13:19;;;;;;;14.60;8.33;;;7.10;81.30;;;;;;5016874;28;20447;-47
2022/03/15 07:15:46;;;;;;;7.30;5.67;;;7.10;81.30;;;;;;5015971;28;20478;-47
2022/03/15 07:18:15;;;;;;;10.70;6.53;;;7.20;81.10;;;;;;5015145;28;20459;-46
2022/03/15 07:20:42;;;;;;;8.53;6.33;;;7.20;81.10;;;;;;5001994;28;20463;-46
2022/03/15 07:23:09;;;;;;;7.07;6.40;;;7.30;81.00;;;;;;5015062;28;20463;-46
2022/03/15 07:25:35;;;;;;;10.40;7.10;;;7.30;81.00;;;;;;5018568;28;21018;-47
2022/03/15 07:28:02;;;;;;;7.80;6.50;;;7.40;81.00;;;;;;5007063;28;20454;-47
2022/03/15 07:30:29;;;;;;;10.00;7.20;;;7.40;80.90;;;;;;5019302;28;20543;-46
2022/03/15 07:32:59;;;;;;;8.77;6.73;;;7.40;80.60;;;;;;5019772;28;20448;-47
2022/03/15 07:35:26;;;;;;;9.30;6.30;;;7.50;80.60;;;;;;5018459;28;20466;-46
2022/03/15 07:37:59;;;;;;;8.60;6.57;;;7.50;80.70;;;;;;5017506;28;20477;-47
2022/03/15 07:40:27;;;;;;;8.73;6.43;;;7.50;80.60;;;;;;5016178;28;20476;-47
2022/03/15 07:42:55;;;;;;;9.90;7.20;;;7.70;80.10;;;;;;5012788;28;20895;-47
2022/03/15 07:45:22;;;;;;;8.93;6.83;;;7.80;79.60;;;;;;5018848;28;21025;-47
2022/03/15 07:47:49;;;;;;;12.07;6.90;;;7.80;79.70;;;;;;4999329;28;21048;-47
2022/03/15 07:50:17;;;;;;;10.13;7.00;;;7.80;79.80;;;;;;5016995;28;20455;-47
2022/03/15 07:52:44;;;;;;;13.20;6.97;;;7.80;79.80;;;;;;5001683;28;20463;-47
2022/03/15 07:55:11;;;;;;;7.83;7.00;;;7.80;79.80;;;;;;5004830;28;20443;-47
2022/03/15 07:57:37;;;;;;;13.10;7.50;;;7.90;79.80;;;;;;5016984;28;20456;-47
2022/03/15 08:00:05;;;;;;;13.57;7.70;;;7.90;79.70;;;;;;5017290;28;21007;-46
2022/03/15 08:02:32;;;;;;;11.20;6.67;;;7.90;79.60;;;;;;5016477;28;20475;-47
2022/03/15 08:05:06;;;;;;;13.43;8.00;;;8.00;79.60;;;;;;5015475;28;20459;-47
2022/03/15 08:07:35;;;;;;;8.20;6.77;;;8.10;79.60;;;;;;5018175;28;20463;-47
2022/03/15 08:10:05;;;;;;;8.27;6.33;;;8.10;79.70;;;;;;5002493;28;20694;-46
2022/03/15 08:12:32;;;;;;;11.10;6.87;;;8.10;79.50;;;;;;5021372;28;20537;-47
2022/03/15 08:14:59;;;;;;;9.13;5.43;;;8.20;78.80;;;;;;5016893;28;20539;-47
2022/03/15 08:17:27;;;;;;;7.37;5.40;;;8.30;78.00;;;;;;5018190;28;20974;-47
2022/03/15 08:19:54;;;;;;;6.30;5.70;;;8.30;77.40;;;;;;5021168;28;20808;-47
2022/03/15 08:22:20;;;;;;;8.43;7.30;;;8.40;76.90;;;;;;5019098;28;20459;-47
2022/03/15 08:24:47;;;;;;;14.13;8.67;;;8.40;76.80;;;;;;5015150;28;20565;-47
2022/03/15 08:27:14;;;;;;;9.57;5.93;;;8.50;76.50;;;;;;5035212;28;20501;-47
2022/03/15 08:29:41;;;;;;;8.30;7.00;;;8.50;76.10;;;;;;5021031;28;20464;-47
2022/03/15 08:32:08;;;;;;;9.40;6.20;;;8.60;75.70;;;;;;5016529;28;20466;-47
2022/03/15 08:34:35;;;;;;;8.03;5.97;;;8.60;75.30;;;;;;5014576;28;20460;-47
2022/03/15 08:37:07;;;;;;;9.40;6.60;;;8.60;75.00;;;;;;5026335;28;20463;-47
2022/03/15 08:39:34;;;;;;;7.63;5.97;;;8.60;74.90;;;;;;5038157;28;20542;-47
2022/03/15 08:42:03;;;;;;;7.03;6.33;;;8.70;74.60;;;;;;5021132;28;20850;-47
2022/03/15 08:44:29;;;;;;;6.33;5.73;;;8.70;74.60;;;;;;5007337;28;20663;-47
2022/03/15 08:46:56;;;;;;;14.50;7.17;;;8.70;74.50;;;;;;5007203;28;20488;-47
2022/03/15 08:49:23;;;;;;;7.60;6.10;;;8.80;74.40;;;;;;5017935;28;20464;-47
2022/03/15 08:51:50;;;;;;;6.30;5.23;;;8.80;74.30;;;;;;5018340;28;20539;-47
2022/03/15 08:54:20;;;;;;;10.83;7.00;;;8.80;74.00;;;;;;5019360;28;20463;-47
2022/03/15 08:56:47;;;;;;;8.80;5.70;;;8.80;74.20;;;;;;5017941;28;20486;-47
2022/03/15 08:59:15;;;;;;;8.40;5.70;;;8.80;74.10;;;;;;5014573;28;20554;-47
2022/03/15 09:01:43;;;;;;;7.40;6.47;;;8.80;74.10;;;;;;5017172;28;20463;-47
2022/03/15 09:04:11;;;;;;;7.57;5.20;;;8.90;73.80;;;;;;5003816;28;20960;-47
2022/03/15 09:06:38;;;;;;;7.83;5.40;;;8.90;73.70;;;;;;5002582;28;20571;-47
2022/03/15 09:09:05;;;;;;;10.57;6.43;;;9.00;73.30;;;;;;5017452;28;20463;-47
2022/03/15 09:11:33;;;;;;;7.63;6.77;;;8.90;73.30;;;;;;5019640;28;21015;-47
2022/03/15 09:14:00;;;;;;;9.63;5.83;;;9.00;73.40;;;;;;5020610;28;20795;-47
2022/03/15 09:16:28;;;;;;;7.57;5.23;;;9.00;73.30;;;;;;5018432;28;20457;-47
2022/03/15 09:18:55;;;;;;;7.37;5.43;;;9.00;73.30;;;;;;5019034;28;20871;-47
2022/03/15 09:21:22;;;;;;;7.60;5.53;;;9.00;73.30;;;;;;5013919;28;20467;-47
2022/03/15 09:23:49;;;;;;;7.10;5.20;;;9.00;73.50;;;;;;5018485;28;20863;-47
2022/03/15 09:26:16;;;;;;;7.63;5.33;;;9.00;73.40;;;;;;5016108;28;20488;-47
2022/03/15 09:28:44;;;;;;;8.03;5.80;;;9.00;73.40;;;;;;5014608;28;20540;-47
2022/03/15 09:31:10;;;;;;;9.17;6.63;;;9.10;73.40;;;;;;5019532;28;20468;-47
2022/03/15 09:33:37;;;;;;;9.70;5.73;;;9.10;73.50;;;;;;5021263;28;20864;-47
2022/03/15 09:36:05;;;;;;;11.60;6.00;;;9.10;73.40;;;;;;5016871;28;20469;-47
2022/03/15 09:38:32;;;;;;;8.87;6.90;;;9.10;73.10;;;;;;5019441;28;20464;-47
2022/03/15 09:41:03;;;;;;;14.33;6.20;;;9.20;73.40;;;;;;5018174;28;20890;-47
2022/03/15 09:43:36;;;;;;;8.00;5.50;;;9.20;73.30;;;;;;5032879;28;20977;-47
2022/03/15 09:46:05;;;;;;;11.33;6.17;;;9.20;73.20;;;;;;5014594;28;20491;-47
2022/03/15 09:48:54;;;;;;;6.53;5.70;;;9.20;73.20;;;;;;5016849;28;20445;-47
2022/03/15 09:51:21;;;;;;;9.90;7.30;;;9.30;73.00;;;;;;5014213;28;20883;-47
2022/03/15 09:53:49;;;;;;;7.63;5.47;;;9.30;73.10;;;;;;5017148;28;20474;-47
2022/03/15 09:56:17;;;;;;;7.60;6.13;;;9.30;73.50;;;;;;5017173;28;20467;-47
2022/03/15 09:58:43;;;;;;;11.37;7.30;;;9.40;73.40;;;;;;4998170;28;20471;-47
2022/03/15 10:01:18;;;;;;;9.10;6.87;;;9.40;73.10;;;;;;5021346;28;20732;-47
2022/03/15 10:03:45;;;;;;;11.47;7.23;;;9.40;72.90;;;;;;5021551;28;20462;-47
2022/03/15 10:06:16;;;;;;;7.67;6.13;;;9.40;72.90;;;;;;5020273;28;20598;-47
2022/03/15 10:08:43;;;;;;;11.30;6.90;;;9.40;73.40;;;;;;5009997;28;20833;-47
2022/03/15 10:11:12;;;;;;;11.47;6.50;;;9.40;73.80;;;;;;5023999;28;20826;-47
2022/03/15 10:13:41;;;;;;;7.00;6.33;;;9.40;74.10;;;;;;5022899;28;21161;-46
2022/03/15 10:16:12;;;;;;;8.20;6.43;;;9.40;74.20;;;;;;5022771;28;20462;-47
2022/03/15 10:18:51;;;;;;;9.17;6.77;;;9.40;74.40;;;;;;5018895;28;20503;-47
2022/03/15 10:21:19;;;;;;;8.43;6.27;;;9.30;75.10;;;;;;5023229;28;20471;-47
2022/03/15 10:23:47;;;;;;;6.77;6.00;;;9.30;74.90;;;;;;5023004;28;20462;-47
2022/03/15 10:26:27;;;;;;;7.07;5.67;;;9.30;75.30;;;;;;5023441;28;21090;-47
2022/03/15 10:28:55;;;;;;;8.60;7.00;;;9.30;75.40;;;;;;5025630;28;20959;-47
2022/03/15 10:31:23;;;;;;;8.10;6.40;;;9.20;75.50;;;;;;5020317;28;20448;-47
2022/03/15 10:33:53;;;;;;;10.70;8.03;;;9.30;76.40;;;;;;5024523;28;20991;-49
2022/03/15 10:36:24;;;;;;;9.70;8.33;;;9.30;76.30;;;;;;5024335;28;20551;-47
2022/03/15 10:38:52;;;;;;;9.07;7.60;;;9.30;76.90;;;;;;4997097;28;21902;-47
2022/03/15 10:41:20;;;;;;;8.27;7.37;;;9.20;77.30;;;;;;5002534;28;20463;-48
2022/03/15 10:43:54;;;;;;;8.73;7.20;;;9.20;78.40;;;;;;5005859;28;20474;-47
2022/03/15 10:46:23;;;;;;;6.80;6.20;;;9.30;78.70;;;;;;5023676;28;20490;-47
2022/03/15 10:49:00;;;;;;;10.23;7.83;;;9.20;78.70;;;;;;5024531;28;20462;-47
2022/03/15 10:51:27;;;;;;;12.37;8.30;;;9.10;79.40;;;;;;5016659;28;20545;-47
2022/03/15 10:54:01;;;;;;;10.40;7.80;;;9.10;79.60;;;;;;5017805;28;20456;-47
2022/03/15 10:56:27;;;;;;;10.57;8.70;;;9.10;80.30;;;;;;5025607;28;20470;-47
2022/03/15 10:59:00;;;;;;;13.37;8.00;;;9.10;80.40;;;;;;5024966;28;20467;-48
2022/03/15 11:01:29;;;;;;;10.73;8.97;;;9.00;80.70;;;;;;5028492;28;20464;-47
2022/03/15 11:04:04;;;;;;;12.10;8.97;;;9.00;81.10;;;;;;5021531;28;20463;-47
2022/03/15 11:06:52;;;;;;;12.43;9.33;;;9.00;81.30;;;;;;5023457;28;20498;-47
2022/03/15 11:09:28;;;;;;;11.57;8.93;;;9.00;81.20;;;;;;5033348;28;20474;-47
2022/03/15 11:12:00;;;;;;;13.10;9.50;;;9.00;81.80;;;;;;5025987;28;20524;-47
2022/03/15 11:14:32;;;;;;;12.83;9.50;;;9.00;82.10;;;;;;5024131;28;20470;-47
2022/03/15 11:16:59;;;;;;;13.67;9.50;;;9.00;82.80;;;;;;5024484;28;20448;-47
2022/03/15 11:19:29;;;;;;;12.17;9.57;;;9.00;82.50;;;;;;5015637;28;20460;-47
2022/03/15 11:21:58;;;;;;;12.60;9.50;;;9.00;82.80;;;;;;5017999;28;20456;-47
2022/03/15 11:24:26;;;;;;;10.17;8.77;;;9.00;82.80;;;;;;5018867;28;20976;-47
2022/03/15 11:26:53;;;;;;;10.07;9.00;;;9.10;82.90;;;;;;5020549;28;21007;-46
2022/03/15 11:29:22;;;;;;;15.50;9.40;;;9.10;82.90;;;;;;5015985;28;20463;-48
2022/03/15 11:31:51;;;;;;;14.27;9.20;;;9.10;82.60;;;;;;5012574;28;20908;-47
2022/03/15 11:34:20;;;;;;;10.87;8.13;;;9.00;82.80;;;;;;5035388;28;20474;-48
2022/03/15 11:36:51;;;;;;;16.07;10.00;;;9.00;83.00;;;;;;5018069;28;20554;-47
2022/03/15 11:39:19;;;;;;;11.87;9.33;;;9.10;83.40;;;;;;5019478;28;20494;-46
2022/03/15 11:41:46;;;;;;;20.37;11.80;;;9.00;83.30;;;;;;5022133;28;20827;-48
2022/03/15 11:44:21;;;;;;;16.70;10.43;;;9.00;83.40;;;;;;5018574;28;20554;-47
2022/03/15 11:47:26;;;;;;;11.90;9.77;;;9.00;83.50;;;;;;5023461;28;20497;-46
2022/03/15 11:49:59;;;;;;;11.50;8.90;;;9.00;83.70;;;;;;4992229;28;20456;-47
2022/03/15 11:52:31;;;;;;;13.53;10.63;;;9.10;83.80;;;;;;5019047;28;20456;-47
2022/03/15 11:55:25;;;;;;;13.17;9.83;;;9.10;83.40;;;;;;5020626;28;20482;-47
2022/03/15 11:58:03;;;;;;;13.77;8.70;;;9.00;83.60;;;;;;5021653;28;20467;-47
2022/03/15 12:00:34;;;;;;;14.23;9.40;;;9.00;84.00;;;;;;5024295;28;20533;-47
2022/03/15 12:03:06;;;;;;;14.10;9.40;;;9.10;84.30;;;;;;5023695;28;20843;-47
2022/03/15 12:05:48;;;;;;;10.27;8.70;;;9.10;84.10;;;;;;5020014;28;21095;-47
2022/03/15 12:08:18;;;;;;;12.50;9.33;;;9.10;84.60;;;;;;5019176;28;20486;-47
2022/03/15 12:10:51;;;;;;;11.00;8.77;;;9.10;84.50;;;;;;5020545;28;20478;-48
2022/03/15 12:13:39;;;;;;;11.70;9.03;;;9.10;84.30;;;;;;5026383;28;20533;-47
2022/03/15 12:16:15;;;;;;;10.60;8.80;;;9.10;84.30;;;;;;5021177;28;20453;-47
2022/03/15 12:18:45;;;;;;;12.83;9.27;;;9.10;84.40;;;;;;5022460;28;20478;-47
2022/03/15 12:21:13;;;;;;;12.03;8.30;;;9.10;84.30;;;;;;5023178;28;20999;-47
2022/03/15 12:23:48;;;;;;;11.00;9.37;;;9.10;84.40;;;;;;5019808;28;20799;-47
2022/03/15 12:26:19;;;;;;;10.90;8.60;;;9.10;84.40;;;;;;5035107;28;20459;-47
2022/03/15 12:29:14;;;;;;;11.37;8.50;;;9.10;84.40;;;;;;5015576;28;20821;-48
2022/03/15 12:31:43;;;;;;;10.60;8.30;;;9.10;84.30;;;;;;5026414;28;20580;-47
2022/03/15 12:34:17;;;;;;;12.00;8.63;;;9.10;84.50;;;;;;5020174;28;20467;-48
2022/03/15 12:36:52;;;;;;;14.50;9.90;;;9.10;84.40;;;;;;5000406;28;20473;-48
2022/03/15 12:39:21;;;;;;;11.77;9.00;;;9.00;84.60;;;;;;5015668;28;20440;-48
2022/03/15 12:41:50;;;;;;;12.57;9.37;;;9.00;84.70;;;;;;5019224;28;20467;-48
2022/03/15 12:44:36;;;;;;;16.80;10.10;;;9.00;85.10;;;;;;5014219;28;20973;-47
2022/03/15 12:47:05;;;;;;;13.43;10.93;;;9.00;85.10;;;;;;5008271;28;20480;-47
2022/03/15 12:49:32;;;;;;;11.93;10.03;;;8.90;85.10;;;;;;5018237;28;20506;-48
2022/03/15 12:52:10;;;;;;;19.27;9.57;;;8.90;85.00;;;;;;5023787;28;20793;-48
2022/03/15 12:54:37;;;;;;;14.13;9.70;;;8.90;85.50;;;;;;5016064;28;20463;-48
2022/03/15 12:57:10;;;;;;;17.50;10.00;;;8.90;85.60;;;;;;5018030;28;20463;-48
2022/03/15 12:59:49;;;;;;;19.13;12.00;;;8.80;85.50;;;;;;5016957;28;21024;-48
2022/03/15 13:02:17;;;;;;;33.77;19.17;;;8.80;85.70;;;;;;5026337;28;20462;-48